Time;durP1;ratioP1;P1;durP2;ratioP2;P2;SDS_P1;SDS_P2;PMS_P1;PMS_P2;Temp;Humidity;BMP_temperature;BMP_pressure;BME280_temperature;BME280_humidity;BME280_pressure;Samples;Min_cycle;Max_cycle;Signal;HPM_P1;HPM_P2
2022/11/10 00:02:42;;;;;;;46.40;1.00;;;8.20;99.90;;;;;;21145099;28;20064;-57
2022/11/10 00:13:03;;;;;;;18.00;0.43;;;8.20;99.90;;;;;;21144038;28;20080;-57
2022/11/10 00:23:25;;;;;;;0.65;0.20;;;8.20;99.90;;;;;;21144085;28;20085;-66
2022/11/10 00:33:46;;;;;;;0.57;0.10;;;8.10;99.90;;;;;;21129345;28;20061;-57
2022/11/10 00:44:08;;;;;;;0.35;0.30;;;8.10;99.90;;;;;;21142111;28;20116;-66
2022/11/10 00:54:29;;;;;;;1.13;0.10;;;8.10;99.90;;;;;;21141570;28;20052;-65
2022/11/10 01:04:50;;;;;;;1.00;0.60;;;8.10;99.90;;;;;;21140669;28;20100;-57
2022/11/10 01:15:11;;;;;;;0.77;0.60;;;8.10;99.90;;;;;;21140094;28;20085;-65
2022/11/10 01:25:32;;;;;;;1.10;0.70;;;8.20;99.90;;;;;;21120779;28;20036;-66
2022/11/10 01:35:55;;;;;;;0.75;0.30;;;8.10;99.90;;;;;;21138555;28;20400;-65
2022/11/10 01:46:16;;;;;;;1.15;0.90;;;8.10;99.90;;;;;;21137931;28;20061;-65
2022/11/10 01:56:49;;;;;;;0.73;0.73;;;8.10;99.90;;;;;;21069864;28;20070;-65
2022/11/10 02:07:10;;;;;;;0.80;0.50;;;8.10;99.90;;;;;;21069414;28;20032;-57
2022/11/10 02:17:31;;;;;;;0.70;0.60;;;8.10;99.90;;;;;;21132076;28;20106;-65
2022/11/10 02:27:53;;;;;;;1.33;0.50;;;8.10;99.90;;;;;;21136250;28;20039;-57
2022/11/10 02:38:14;;;;;;;1.17;0.90;;;8.10;99.90;;;;;;21120897;28;20411;-57
2022/11/10 02:48:35;;;;;;;0.65;0.45;;;8.20;99.90;;;;;;21142163;28;20109;-57
2022/11/10 02:58:56;;;;;;;1.17;0.88;;;8.20;99.90;;;;;;20985281;28;20346;-57
2022/11/10 03:09:17;;;;;;;0.82;0.70;;;8.20;99.90;;;;;;20967808;28;20044;-58
2022/11/10 03:19:38;;;;;;;0.73;0.70;;;8.20;99.90;;;;;;20981204;28;20036;-58
2022/11/10 03:30:00;;;;;;;0.70;0.50;;;8.20;99.90;;;;;;20981781;28;20082;-66
2022/11/10 03:40:22;;;;;;;0.90;0.47;;;8.20;99.90;;;;;;20978350;28;20036;-66
2022/11/10 03:50:43;;;;;;;0.50;0.40;;;8.10;99.90;;;;;;20964805;28;20045;-57
2022/11/10 04:01:04;;;;;;;0.55;0.30;;;8.10;99.90;;;;;;20979703;28;20474;-66
2022/11/10 04:23:25;;;;;;;0.25;0.25;;;8.10;99.90;;;;;;21000734;28;20105;-66
2022/11/10 04:32:53;;;;;;;0.20;0.20;;;8.20;99.90;;;;;;20975817;28;20040;-67
2022/11/10 04:43:15;;;;;;;0.47;0.20;;;8.10;99.90;;;;;;21058281;28;20078;-66
2022/11/10 04:53:36;;;;;;;0.98;0.10;;;8.10;99.90;;;;;;21071328;28;20114;-66
2022/11/10 05:03:57;;;;;;;0.13;0.10;;;8.00;99.90;;;;;;21056655;28;20032;-65
2022/11/10 05:14:18;;;;;;;25.50;1.70;;;8.00;99.90;;;;;;20972631;28;20032;-56
2022/11/10 05:24:39;;;;;;;0.20;0.20;;;8.00;99.90;;;;;;21052280;28;20032;-66
2022/11/10 05:35:01;;;;;;;0.32;0.30;;;7.90;99.90;;;;;;21054138;28;20036;-64
2022/11/10 05:45:26;;;;;;;0.10;0.00;;;7.90;99.90;;;;;;21070490;28;20090;-65
2022/11/10 05:55:47;;;;;;;0.10;0.10;;;7.90;99.90;;;;;;21069496;28;20453;-58
2022/11/10 06:06:11;;;;;;;0.10;0.10;;;7.90;99.90;;;;;;21120311;28;20032;-56
2022/11/10 06:16:32;;;;;;;0.00;0.00;;;7.90;99.90;;;;;;21052388;28;20032;-57
2022/11/10 06:26:54;;;;;;;0.10;0.10;;;7.90;99.90;;;;;;21051335;28;20485;-65
2022/11/10 06:37:15;;;;;;;0.85;0.30;;;7.80;99.90;;;;;;21076813;28;20035;-56
2022/11/10 06:47:39;;;;;;;0.22;0.20;;;7.80;99.90;;;;;;21135087;28;20384;-56
2022/11/10 06:58:00;;;;;;;0.32;0.30;;;7.80;99.90;;;;;;21060210;28;20040;-65
2022/11/10 07:08:21;;;;;;;1.73;0.40;;;7.80;99.90;;;;;;21086037;28;20073;-57
2022/11/10 07:18:42;;;;;;;1.17;0.40;;;7.70;99.90;;;;;;21135473;28;20623;-58
2022/11/10 07:29:04;;;;;;;1.13;0.10;;;7.80;99.90;;;;;;20995449;28;20083;-58
2022/11/10 07:39:25;;;;;;;0.10;0.10;;;8.00;99.90;;;;;;21040130;28;20036;-57
2022/11/10 07:49:47;;;;;;;0.10;0.00;;;8.10;99.90;;;;;;21079223;28;20109;-58
2022/11/10 08:00:11;;;;;;;0.25;0.00;;;8.20;99.90;;;;;;21048202;28;20036;-58
2022/11/10 08:10:34;;;;;;;0.00;0.00;;;8.50;99.90;;;;;;21061140;28;20032;-58
2022/11/10 08:20:55;;;;;;;0.00;0.00;;;8.70;99.90;;;;;;21059362;28;20547;-66
2022/11/10 08:31:16;;;;;;;0.47;0.00;;;9.00;99.90;;;;;;21059730;28;20105;-67
2022/11/10 08:41:38;;;;;;;0.20;0.00;;;9.50;99.90;;;;;;21059519;28;20061;-61
2022/11/10 08:51:59;;;;;;;0.68;0.10;;;10.10;99.90;;;;;;21057421;28;20052;-61
2022/11/10 09:02:21;;;;;;;0.20;0.10;;;10.70;99.90;;;;;;21056166;28;20082;-66
2022/11/10 09:12:42;;;;;;;0.05;0.00;;;10.90;99.90;;;;;;21056336;28;20497;-63
2022/11/10 09:23:29;;;;;;;0.13;0.00;;;11.70;99.90;;;;;;21037254;28;20040;-61
2022/11/10 09:33:50;;;;;;;0.77;0.03;;;12.20;99.90;;;;;;21054945;28;20040;-61
2022/11/10 09:44:15;;;;;;;0.10;0.08;;;12.70;99.90;;;;;;21053840;28;20081;-61
2022/11/10 09:55:02;;;;;;;2.65;0.10;;;12.60;99.90;;;;;;21039213;28;20155;-61
2022/11/10 10:05:45;;;;;;;0.50;0.10;;;12.90;99.90;;;;;;21052707;28;20546;-64
2022/11/10 10:16:41;;;;;;;0.47;0.10;;;13.10;99.90;;;;;;21052707;28;20032;-62
2022/11/10 10:27:05;;;;;;;0.20;0.10;;;13.40;99.90;;;;;;20648276;28;20049;-64
2022/11/10 10:37:49;;;;;;;0.38;0.10;;;12.60;99.90;;;;;;20712977;28;20097;-60
2022/11/10 10:48:30;;;;;;;0.20;0.10;;;12.20;99.90;;;;;;20722180;28;20034;-65
2022/11/10 10:58:56;;;;;;;0.20;0.10;;;12.70;99.90;;;;;;20882303;28;20485;-67
2022/11/10 11:09:24;;;;;;;0.08;0.08;;;12.90;99.90;;;;;;21109984;28;20039;-66
2022/11/10 11:19:51;;;;;;;0.10;0.00;;;12.90;99.90;;;;;;21130860;28;20085;-65
2022/11/10 11:30:23;;;;;;;1.55;0.10;;;13.20;99.90;;;;;;21149303;28;20084;-66
2022/11/10 11:41:30;;;;;;;0.10;0.10;;;13.20;99.90;;;;;;21092871;28;20086;-65
2022/11/10 11:51:51;;;;;;;0.20;0.00;;;13.50;99.90;;;;;;21026492;28;20128;-64
2022/11/10 12:02:43;;;;;;;0.20;0.03;;;13.70;99.90;;;;;;20977566;28;20094;-64
2022/11/10 12:13:24;;;;;;;3.35;0.40;;;14.20;99.90;;;;;;20977983;28;20041;-63
2022/11/10 12:23:59;;;;;;;0.73;0.50;;;14.90;99.90;;;;;;20995303;28;20472;-63
2022/11/10 12:34:29;;;;;;;0.85;0.38;;;15.20;99.90;;;;;;20976326;28;20098;-60
2022/11/10 12:45:02;;;;;;;0.25;0.20;;;15.10;99.90;;;;;;20975511;28;20036;-62
2022/11/10 12:55:45;;;;;;;0.30;0.30;;;15.10;99.90;;;;;;21091937;28;20059;-60
2022/11/10 13:06:34;;;;;;;0.68;0.40;;;13.70;99.90;;;;;;20714183;28;20033;-65
2022/11/10 13:16:56;;;;;;;3.90;2.70;;;12.50;99.90;;;;;;20696340;28;20050;-65
2022/11/10 13:27:51;;;;;;;5.72;4.35;;;12.10;99.90;;;;;;20688272;28;20097;-66
2022/11/10 13:38:31;;;;;;;3.65;3.05;;;12.20;99.90;;;;;;20807967;28;20101;-67
2022/11/10 13:49:16;;;;;;;3.57;2.90;;;11.90;99.90;;;;;;21053959;28;20109;-60
2022/11/10 13:59:55;;;;;;;4.35;3.05;;;12.20;99.90;;;;;;20982049;28;20025;-59
2022/11/10 14:10:34;;;;;;;3.95;3.10;;;12.40;99.90;;;;;;21036286;28;20043;-60
2022/11/10 14:21:01;;;;;;;4.50;3.90;;;12.70;99.90;;;;;;21068228;28;20058;-66
2022/11/10 14:31:24;;;;;;;6.70;5.65;;;12.60;99.90;;;;;;21052131;28;20542;-65
2022/11/10 14:41:47;;;;;;;7.35;5.30;;;12.00;99.90;;;;;;21039880;28;20037;-64
2022/11/10 14:52:12;;;;;;;6.97;3.58;;;11.10;99.90;;;;;;21008132;28;20044;-64
2022/11/10 15:02:33;;;;;;;1.75;1.60;;;10.40;99.90;;;;;;21050670;28;20039;-64
2022/11/10 15:13:26;;;;;;;3.75;1.27;;;9.80;99.90;;;;;;21050083;28;20078;-60
2022/11/10 15:23:56;;;;;;;1.60;1.30;;;9.20;99.90;;;;;;21044684;28;20032;-63
2022/11/10 15:34:31;;;;;;;2.17;1.27;;;8.60;99.90;;;;;;21058426;28;20110;-61
2022/11/10 15:44:51;;;;;;;3.22;1.80;;;8.00;99.90;;;;;;21063402;28;20032;-58
2022/11/10 15:55:23;;;;;;;3.35;1.42;;;7.60;99.90;;;;;;21127177;28;20282;-64
2022/11/10 16:05:47;;;;;;;5.05;1.70;;;7.10;99.90;;;;;;21146800;28;20031;-64
2022/11/10 16:16:16;;;;;;;2.50;1.80;;;6.90;99.90;;;;;;21145432;28;20031;-63
2022/11/10 16:26:37;;;;;;;2.10;1.50;;;6.50;99.90;;;;;;21144136;28;20097;-57
2022/11/10 16:36:59;;;;;;;3.13;1.15;;;6.10;99.90;;;;;;21143278;28;20484;-64
2022/11/10 16:47:21;;;;;;;3.78;1.73;;;6.10;99.90;;;;;;21084018;28;20047;-58
2022/11/10 16:57:42;;;;;;;2.95;1.45;;;6.00;99.90;;;;;;21115259;28;20043;-64
2022/11/10 17:08:04;;;;;;;1.33;0.88;;;5.90;99.90;;;;;;21141123;28;20028;-58
2022/11/10 17:18:25;;;;;;;0.77;0.30;;;5.80;99.90;;;;;;21128833;28;20082;-55
2022/11/10 17:28:46;;;;;;;0.20;0.20;;;5.70;99.90;;;;;;21136110;28;20031;-64
2022/11/10 17:39:19;;;;;;;1.15;0.40;;;5.60;99.90;;;;;;21140165;28;20043;-65
2022/11/10 17:49:40;;;;;;;;;;;5.40;99.90;;;;;;21138093;28;20039;-64
2022/11/10 18:00:02;;;;;;;1.00;0.43;;;5.40;99.90;;;;;;21136860;28;19957;-64
2022/11/10 18:10:23;;;;;;;0.75;0.60;;;5.50;99.90;;;;;;21038553;28;20035;-57
2022/11/10 18:20:44;;;;;;;;;;;5.50;99.90;;;;;;21069611;28;20044;-65
2022/11/10 18:31:08;;;;;;;0.80;0.40;;;5.40;99.90;;;;;;21068804;28;19936;-56
2022/11/10 18:41:47;;;;;;;0.60;0.50;;;5.40;99.90;;;;;;21077646;28;20035;-56
2022/11/10 18:52:09;;;;;;;1.02;0.60;;;5.40;99.90;;;;;;21135025;28;20043;-65
2022/11/10 19:02:31;;;;;;;2.80;0.70;;;5.50;99.90;;;;;;21134729;28;20100;-58
2022/11/10 19:12:52;;;;;;;2.05;1.02;;;5.40;99.90;;;;;;21082650;28;20040;-58
2022/11/10 19:23:13;;;;;;;1.02;0.70;;;5.50;99.90;;;;;;21100820;28;20040;-65
2022/11/10 19:33:38;;;;;;;1.02;0.50;;;5.50;99.90;;;;;;21122672;28;20051;-56
2022/11/10 19:44:00;;;;;;;1.00;0.68;;;5.60;99.90;;;;;;21099146;28;20035;-66
2022/11/10 19:54:22;;;;;;;1.77;0.40;;;5.50;99.90;;;;;;21087566;28;20119;-57
2022/11/10 20:15:24;;;;;;;1.03;0.50;;;5.40;99.90;;;;;;21144736;28;20031;-56
2022/11/10 20:25:45;;;;;;;1.70;1.05;;;5.30;99.90;;;;;;21130852;28;20040;-55
2022/11/10 20:36:11;;;;;;;3.10;1.02;;;5.30;99.90;;;;;;21097286;28;20040;-66
2022/11/10 20:46:32;;;;;;;1.23;0.90;;;5.30;99.90;;;;;;21056028;28;20040;-58
2022/11/10 20:56:55;;;;;;;4.60;0.90;;;5.30;99.90;;;;;;21054026;28;20409;-66
2022/11/10 21:07:16;;;;;;;1.00;0.75;;;5.20;99.90;;;;;;21041094;28;20036;-66
2022/11/10 21:17:37;;;;;;;2.33;0.65;;;5.30;99.90;;;;;;21135642;28;20036;-55
2022/11/10 21:28:00;;;;;;;1.08;0.77;;;5.30;99.90;;;;;;21129124;28;20468;-56
2022/11/10 21:38:21;;;;;;;1.00;0.60;;;5.30;99.90;;;;;;21104209;28;20063;-56
2022/11/10 21:48:42;;;;;;;0.93;0.40;;;5.30;99.90;;;;;;21044386;28;20402;-65
2022/11/10 21:59:03;;;;;;;1.00;0.57;;;5.10;99.90;;;;;;20970002;28;20182;-66
2022/11/10 22:20:05;;;;;;;0.93;0.40;;;5.20;99.90;;;;;;20969815;28;20040;-57
2022/11/10 22:30:27;;;;;;;1.15;0.45;;;5.50;99.90;;;;;;20969739;28;20036;-66
2022/11/10 22:51:30;;;;;;;0.32;0.22;;;5.20;99.90;;;;;;21067593;28;20121;-56
2022/11/10 23:01:51;;;;;;;1.00;0.40;;;5.20;99.90;;;;;;21067206;28;20031;-57
2022/11/10 23:12:13;;;;;;;0.68;0.47;;;5.20;99.90;;;;;;21058216;28;20058;-52
2022/11/10 23:22:34;;;;;;;;;;;5.20;99.90;;;;;;21064317;28;20029;-54
2022/11/10 23:32:54;;;;;;;1.92;0.90;;;5.30;99.90;;;;;;21064804;28;19908;-66
2022/11/10 23:43:15;;;;;;;;;;;4.90;99.90;;;;;;21064273;28;20464;-66
2022/11/10 23:53:37;;;;;;;2.30;0.60;;;4.90;99.90;;;;;;21091684;28;19915;-58
